sensor_id;sensor_type;location;lat;lon;timestamp;temperature;humidity
21246;DHT22;10781;50.928;4.440;2024-01-16T00:00:07;2.60;99.90
21246;DHT22;10781;50.928;4.440;2024-01-16T00:02:34;2.60;99.90
21246;DHT22;10781;50.928;4.440;2024-01-16T00:05:00;2.70;99.90
21246;DHT22;10781;50.928;4.440;2024-01-16T00:07:25;2.60;99.90
21246;DHT22;10781;50.928;4.440;2024-01-16T00:09:51;2.60;99.90
21246;DHT22;10781;50.928;4.440;2024-01-16T00:12:19;2.60;99.90
21246;DHT22;10781;50.928;4.440;2024-01-16T00:14:45;2.50;99.90
21246;DHT22;10781;50.928;4.440;2024-01-16T00:17:10;2.60;99.90
21246;DHT22;10781;50.928;4.440;2024-01-16T00:19:36;2.50;99.90
21246;DHT22;10781;50.928;4.440;2024-01-16T00:22:02;2.50;99.90
21246;DHT22;10781;50.928;4.440;2024-01-16T00:24:30;2.40;99.90
21246;DHT22;10781;50.928;4.440;2024-01-16T00:26:56;2.30;99.90
21246;DHT22;10781;50.928;4.440;2024-01-16T00:29:21;2.20;99.90
21246;DHT22;10781;50.928;4.440;2024-01-16T00:31:47;2.30;99.90
21246;DHT22;10781;50.928;4.440;2024-01-16T00:34:13;2.20;99.90
21246;DHT22;10781;50.928;4.440;2024-01-16T00:36:38;2.30;99.90
21246;DHT22;10781;50.928;4.440;2024-01-16T00:39:04;2.60;99.90
21246;DHT22;10781;50.928;4.440;2024-01-16T00:41:30;2.60;99.90
21246;DHT22;10781;50.928;4.440;2024-01-16T00:43:55;2.70;99.90
21246;DHT22;10781;50.928;4.440;2024-01-16T00:46:22;2.70;99.90
21246;DHT22;10781;50.928;4.440;2024-01-16T00:48:47;2.60;99.90
21246;DHT22;10781;50.928;4.440;2024-01-16T00:51:13;2.60;99.90
21246;DHT22;10781;50.928;4.440;2024-01-16T00:53:43;2.50;99.90
21246;DHT22;10781;50.928;4.440;2024-01-16T00:56:09;2.40;99.90
21246;DHT22;10781;50.928;4.440;2024-01-16T00:58:35;2.30;99.90
21246;DHT22;10781;50.928;4.440;2024-01-16T01:01:01;2.30;99.90
21246;DHT22;10781;50.928;4.440;2024-01-16T01:03:26;2.40;99.90
21246;DHT22;10781;50.928;4.440;2024-01-16T01:05:52;2.40;99.90
21246;DHT22;10781;50.928;4.440;2024-01-16T01:08:19;2.30;99.90
21246;DHT22;10781;50.928;4.440;2024-01-16T01:10:44;2.40;99.90
21246;DHT22;10781;50.928;4.440;2024-01-16T01:13:10;2.40;99.90
21246;DHT22;10781;50.928;4.440;2024-01-16T01:15:36;2.50;99.90
21246;DHT22;10781;50.928;4.440;2024-01-16T01:18:01;2.30;99.90
21246;DHT22;10781;50.928;4.440;2024-01-16T01:20:27;2.50;99.90
21246;DHT22;10781;50.928;4.440;2024-01-16T01:22:53;2.60;99.90
21246;DHT22;10781;50.928;4.440;2024-01-16T01:25:18;2.50;99.90
21246;DHT22;10781;50.928;4.440;2024-01-16T01:27:44;2.50;99.90
21246;DHT22;10781;50.928;4.440;2024-01-16T01:30:10;2.50;99.90
21246;DHT22;10781;50.928;4.440;2024-01-16T01:32:36;2.50;99.90
21246;DHT22;10781;50.928;4.440;2024-01-16T01:35:03;2.40;99.90
21246;DHT22;10781;50.928;4.440;2024-01-16T01:37:28;2.30;99.90
21246;DHT22;10781;50.928;4.440;2024-01-16T01:39:54;2.40;99.90
21246;DHT22;10781;50.928;4.440;2024-01-16T01:42:20;2.40;99.90
21246;DHT22;10781;50.928;4.440;2024-01-16T01:44:45;2.30;99.90
21246;DHT22;10781;50.928;4.440;2024-01-16T01:47:11;2.20;99.90
21246;DHT22;10781;50.928;4.440;2024-01-16T01:49:37;2.20;99.90
21246;DHT22;10781;50.928;4.440;2024-01-16T01:52:05;2.20;99.90
21246;DHT22;10781;50.928;4.440;2024-01-16T01:54:32;2.20;99.90
21246;DHT22;10781;50.928;4.440;2024-01-16T01:57:00;2.10;99.90
21246;DHT22;10781;50.928;4.440;2024-01-16T01:59:26;2.10;99.90
21246;DHT22;10781;50.928;4.440;2024-01-16T02:01:52;2.10;99.90
21246;DHT22;10781;50.928;4.440;2024-01-16T02:04:19;2.30;99.90
21246;DHT22;10781;50.928;4.440;2024-01-16T02:06:45;2.30;99.90
21246;DHT22;10781;50.928;4.440;2024-01-16T02:09:12;2.30;99.90
21246;DHT22;10781;50.928;4.440;2024-01-16T02:11:42;2.40;99.90
21246;DHT22;10781;50.928;4.440;2024-01-16T02:14:09;2.40;99.90
21246;DHT22;10781;50.928;4.440;2024-01-16T02:16:39;2.30;99.90
21246;DHT22;10781;50.928;4.440;2024-01-16T02:19:05;2.30;99.90
21246;DHT22;10781;50.928;4.440;2024-01-16T02:21:46;2.20;99.90
21246;DHT22;10781;50.928;4.440;2024-01-16T02:24:13;2.30;99.90
21246;DHT22;10781;50.928;4.440;2024-01-16T02:26:39;2.20;99.90
21246;DHT22;10781;50.928;4.440;2024-01-16T02:29:05;2.20;99.90
21246;DHT22;10781;50.928;4.440;2024-01-16T02:31:31;2.10;99.90
21246;DHT22;10781;50.928;4.440;2024-01-16T02:33:57;2.10;99.90
21246;DHT22;10781;50.928;4.440;2024-01-16T02:36:23;2.20;99.90
21246;DHT22;10781;50.928;4.440;2024-01-16T02:38:49;2.20;99.90
21246;DHT22;10781;50.928;4.440;2024-01-16T02:41:15;2.20;99.90
21246;DHT22;10781;50.928;4.440;2024-01-16T02:43:42;1.90;99.90
21246;DHT22;10781;50.928;4.440;2024-01-16T02:46:07;1.80;99.90
21246;DHT22;10781;50.928;4.440;2024-01-16T02:48:34;1.90;99.90
21246;DHT22;10781;50.928;4.440;2024-01-16T02:51:01;1.90;99.90
21246;DHT22;10781;50.928;4.440;2024-01-16T02:53:26;2.20;99.90
21246;DHT22;10781;50.928;4.440;2024-01-16T02:55:54;2.20;99.90
21246;DHT22;10781;50.928;4.440;2024-01-16T02:58:20;2.20;99.90
21246;DHT22;10781;50.928;4.440;2024-01-16T03:00:46;2.50;99.90
21246;DHT22;10781;50.928;4.440;2024-01-16T03:03:12;2.50;99.90
21246;DHT22;10781;50.928;4.440;2024-01-16T03:05:38;2.50;99.90
21246;DHT22;10781;50.928;4.440;2024-01-16T03:08:04;2.50;99.90
21246;DHT22;10781;50.928;4.440;2024-01-16T03:10:30;2.40;99.90
21246;DHT22;10781;50.928;4.440;2024-01-16T03:12:56;2.30;99.90
21246;DHT22;10781;50.928;4.440;2024-01-16T03:15:22;2.40;99.90
21246;DHT22;10781;50.928;4.440;2024-01-16T03:17:48;2.40;99.90
21246;DHT22;10781;50.928;4.440;2024-01-16T03:20:15;2.30;99.90
21246;DHT22;10781;50.928;4.440;2024-01-16T03:22:41;2.20;99.90
21246;DHT22;10781;50.928;4.440;2024-01-16T03:25:08;2.30;99.90
21246;DHT22;10781;50.928;4.440;2024-01-16T03:27:34;2.40;99.90
21246;DHT22;10781;50.928;4.440;2024-01-16T03:30:01;2.40;99.90
21246;DHT22;10781;50.928;4.440;2024-01-16T03:32:27;2.40;99.90
21246;DHT22;10781;50.928;4.440;2024-01-16T03:34:52;2.40;99.90
21246;DHT22;10781;50.928;4.440;2024-01-16T03:37:18;2.40;99.90
21246;DHT22;10781;50.928;4.440;2024-01-16T03:39:43;2.40;99.90
21246;DHT22;10781;50.928;4.440;2024-01-16T03:42:10;2.40;99.90
21246;DHT22;10781;50.928;4.440;2024-01-16T03:44:41;2.30;99.90
21246;DHT22;10781;50.928;4.440;2024-01-16T03:47:07;2.20;99.90
21246;DHT22;10781;50.928;4.440;2024-01-16T03:49:34;2.10;99.90
21246;DHT22;10781;50.928;4.440;2024-01-16T03:51:59;2.30;99.90
21246;DHT22;10781;50.928;4.440;2024-01-16T03:54:25;2.30;99.90
21246;DHT22;10781;50.928;4.440;2024-01-16T03:56:51;2.10;99.90
21246;DHT22;10781;50.928;4.440;2024-01-16T03:59:17;2.10;99.90
21246;DHT22;10781;50.928;4.440;2024-01-16T04:01:42;2.00;99.90
21246;DHT22;10781;50.928;4.440;2024-01-16T04:04:10;2.10;99.90
21246;DHT22;10781;50.928;4.440;2024-01-16T04:06:36;2.10;99.90
21246;DHT22;10781;50.928;4.440;2024-01-16T04:09:02;2.20;99.90
21246;DHT22;10781;50.928;4.440;2024-01-16T04:11:29;2.20;99.90
21246;DHT22;10781;50.928;4.440;2024-01-16T04:13:54;2.30;99.90
21246;DHT22;10781;50.928;4.440;2024-01-16T04:16:20;2.30;99.90
21246;DHT22;10781;50.928;4.440;2024-01-16T04:18:46;2.40;99.90
21246;DHT22;10781;50.928;4.440;2024-01-16T04:21:12;2.20;99.90
21246;DHT22;10781;50.928;4.440;2024-01-16T04:23:38;2.10;99.90
21246;DHT22;10781;50.928;4.440;2024-01-16T04:26:04;2.00;99.90
21246;DHT22;10781;50.928;4.440;2024-01-16T04:28:29;2.00;99.90
21246;DHT22;10781;50.928;4.440;2024-01-16T04:30:55;2.10;99.90
21246;DHT22;10781;50.928;4.440;2024-01-16T04:33:20;2.20;99.90
21246;DHT22;10781;50.928;4.440;2024-01-16T04:35:46;2.10;99.90
21246;DHT22;10781;50.928;4.440;2024-01-16T04:38:12;2.10;99.90
21246;DHT22;10781;50.928;4.440;2024-01-16T04:40:38;2.00;99.90
21246;DHT22;10781;50.928;4.440;2024-01-16T04:43:03;1.90;99.90
21246;DHT22;10781;50.928;4.440;2024-01-16T04:45:29;1.90;99.90
21246;DHT22;10781;50.928;4.440;2024-01-16T04:47:54;2.00;99.90
21246;DHT22;10781;50.928;4.440;2024-01-16T04:50:20;2.00;99.90
21246;DHT22;10781;50.928;4.440;2024-01-16T04:52:46;1.90;99.90
21246;DHT22;10781;50.928;4.440;2024-01-16T04:55:11;2.00;99.90
21246;DHT22;10781;50.928;4.440;2024-01-16T04:57:37;1.90;99.90
21246;DHT22;10781;50.928;4.440;2024-01-16T05:00:03;1.80;99.90
21246;DHT22;10781;50.928;4.440;2024-01-16T05:02:35;1.80;99.90
21246;DHT22;10781;50.928;4.440;2024-01-16T05:05:00;1.70;99.90
21246;DHT22;10781;50.928;4.440;2024-01-16T05:07:26;1.90;99.90
21246;DHT22;10781;50.928;4.440;2024-01-16T05:09:52;2.00;99.90
21246;DHT22;10781;50.928;4.440;2024-01-16T05:12:19;2.00;99.90
21246;DHT22;10781;50.928;4.440;2024-01-16T05:14:44;1.80;99.90
21246;DHT22;10781;50.928;4.440;2024-01-16T05:17:10;1.60;99.90
21246;DHT22;10781;50.928;4.440;2024-01-16T05:19:36;1.50;99.90
21246;DHT22;10781;50.928;4.440;2024-01-16T05:22:02;1.60;99.90
21246;DHT22;10781;50.928;4.440;2024-01-16T05:24:28;1.60;99.90
21246;DHT22;10781;50.928;4.440;2024-01-16T05:26:54;1.50;99.90
21246;DHT22;10781;50.928;4.440;2024-01-16T05:29:20;1.60;99.90
21246;DHT22;10781;50.928;4.440;2024-01-16T05:31:45;1.60;99.90
21246;DHT22;10781;50.928;4.440;2024-01-16T05:34:11;1.70;99.90
21246;DHT22;10781;50.928;4.440;2024-01-16T05:36:37;1.60;99.90
21246;DHT22;10781;50.928;4.440;2024-01-16T05:39:03;1.50;99.90
21246;DHT22;10781;50.928;4.440;2024-01-16T05:41:35;1.20;99.90
21246;DHT22;10781;50.928;4.440;2024-01-16T05:44:01;1.10;99.90
21246;DHT22;10781;50.928;4.440;2024-01-16T05:46:32;1.20;99.90
21246;DHT22;10781;50.928;4.440;2024-01-16T05:48:58;1.40;99.90
21246;DHT22;10781;50.928;4.440;2024-01-16T05:51:26;1.60;99.90
21246;DHT22;10781;50.928;4.440;2024-01-16T05:53:51;1.50;99.90
21246;DHT22;10781;50.928;4.440;2024-01-16T05:56:17;1.30;99.90
21246;DHT22;10781;50.928;4.440;2024-01-16T05:58:43;1.30;99.90
21246;DHT22;10781;50.928;4.440;2024-01-16T06:01:08;1.20;99.90
21246;DHT22;10781;50.928;4.440;2024-01-16T06:03:34;1.30;99.90
21246;DHT22;10781;50.928;4.440;2024-01-16T06:06:00;1.20;99.90
21246;DHT22;10781;50.928;4.440;2024-01-16T06:08:25;1.20;99.90
21246;DHT22;10781;50.928;4.440;2024-01-16T06:10:51;1.10;99.90
21246;DHT22;10781;50.928;4.440;2024-01-16T06:13:18;1.00;99.90
21246;DHT22;10781;50.928;4.440;2024-01-16T06:15:44;1.10;99.90
21246;DHT22;10781;50.928;4.440;2024-01-16T06:18:10;1.00;99.90
21246;DHT22;10781;50.928;4.440;2024-01-16T06:20:35;1.10;99.90
21246;DHT22;10781;50.928;4.440;2024-01-16T06:23:01;1.10;99.90
21246;DHT22;10781;50.928;4.440;2024-01-16T06:25:27;1.30;99.90
21246;DHT22;10781;50.928;4.440;2024-01-16T06:27:52;1.40;99.90
21246;DHT22;10781;50.928;4.440;2024-01-16T06:30:18;1.20;99.90
21246;DHT22;10781;50.928;4.440;2024-01-16T06:32:44;1.20;99.90
21246;DHT22;10781;50.928;4.440;2024-01-16T06:35:11;1.30;99.90
21246;DHT22;10781;50.928;4.440;2024-01-16T06:37:37;1.30;99.90
21246;DHT22;10781;50.928;4.440;2024-01-16T06:40:03;1.30;99.90
21246;DHT22;10781;50.928;4.440;2024-01-16T06:42:29;1.50;99.90
21246;DHT22;10781;50.928;4.440;2024-01-16T06:44:55;1.60;99.90
21246;DHT22;10781;50.928;4.440;2024-01-16T06:47:20;1.50;99.90
21246;DHT22;10781;50.928;4.440;2024-01-16T06:49:46;1.50;99.90
21246;DHT22;10781;50.928;4.440;2024-01-16T06:52:12;1.70;99.90
21246;DHT22;10781;50.928;4.440;2024-01-16T06:54:38;1.80;99.90
21246;DHT22;10781;50.928;4.440;2024-01-16T06:57:04;1.60;99.90
21246;DHT22;10781;50.928;4.440;2024-01-16T06:59:29;1.50;99.90
21246;DHT22;10781;50.928;4.440;2024-01-16T07:01:55;1.40;99.90
21246;DHT22;10781;50.928;4.440;2024-01-16T07:04:21;1.30;99.90
21246;DHT22;10781;50.928;4.440;2024-01-16T07:06:46;1.30;99.90
21246;DHT22;10781;50.928;4.440;2024-01-16T07:09:13;1.30;99.90
21246;DHT22;10781;50.928;4.440;2024-01-16T07:11:39;1.20;99.90
21246;DHT22;10781;50.928;4.440;2024-01-16T07:14:11;1.30;99.90
21246;DHT22;10781;50.928;4.440;2024-01-16T07:16:37;1.30;99.90
21246;DHT22;10781;50.928;4.440;2024-01-16T07:19:02;1.60;99.90
21246;DHT22;10781;50.928;4.440;2024-01-16T07:21:28;1.70;99.90
21246;DHT22;10781;50.928;4.440;2024-01-16T07:23:54;1.30;99.90
21246;DHT22;10781;50.928;4.440;2024-01-16T07:26:20;1.30;99.90
21246;DHT22;10781;50.928;4.440;2024-01-16T07:28:46;1.20;99.90
21246;DHT22;10781;50.928;4.440;2024-01-16T07:31:15;1.00;99.90
21246;DHT22;10781;50.928;4.440;2024-01-16T07:33:42;1.10;99.90
21246;DHT22;10781;50.928;4.440;2024-01-16T07:36:08;1.10;99.90
21246;DHT22;10781;50.928;4.440;2024-01-16T07:38:34;1.20;99.90
21246;DHT22;10781;50.928;4.440;2024-01-16T07:41:01;1.20;99.90
21246;DHT22;10781;50.928;4.440;2024-01-16T07:43:27;1.20;99.90
21246;DHT22;10781;50.928;4.440;2024-01-16T07:45:55;1.20;99.90
21246;DHT22;10781;50.928;4.440;2024-01-16T07:48:21;1.40;99.90
21246;DHT22;10781;50.928;4.440;2024-01-16T07:50:48;1.30;99.90
21246;DHT22;10781;50.928;4.440;2024-01-16T07:53:14;1.30;99.90
21246;DHT22;10781;50.928;4.440;2024-01-16T07:55:41;1.30;99.90
21246;DHT22;10781;50.928;4.440;2024-01-16T07:58:06;1.30;99.90
21246;DHT22;10781;50.928;4.440;2024-01-16T08:00:32;1.30;99.90
21246;DHT22;10781;50.928;4.440;2024-01-16T08:02:58;1.50;99.90
21246;DHT22;10781;50.928;4.440;2024-01-16T08:05:23;1.60;99.90
21246;DHT22;10781;50.928;4.440;2024-01-16T08:07:53;1.60;99.90
21246;DHT22;10781;50.928;4.440;2024-01-16T08:10:19;1.70;99.90
21246;DHT22;10781;50.928;4.440;2024-01-16T08:12:45;1.70;99.90
21246;DHT22;10781;50.928;4.440;2024-01-16T08:15:11;1.90;99.90
21246;DHT22;10781;50.928;4.440;2024-01-16T08:17:37;1.70;99.90
21246;DHT22;10781;50.928;4.440;2024-01-16T08:20:02;1.70;99.90
21246;DHT22;10781;50.928;4.440;2024-01-16T08:22:28;1.60;99.90
21246;DHT22;10781;50.928;4.440;2024-01-16T08:24:54;1.80;99.90
21246;DHT22;10781;50.928;4.440;2024-01-16T08:32:27;1.60;99.90
21246;DHT22;10781;50.928;4.440;2024-01-16T08:34:53;1.80;99.90
21246;DHT22;10781;50.928;4.440;2024-01-16T08:37:19;1.70;99.90
21246;DHT22;10781;50.928;4.440;2024-01-16T08:39:45;2.00;99.90
21246;DHT22;10781;50.928;4.440;2024-01-16T08:42:11;2.10;99.90
21246;DHT22;10781;50.928;4.440;2024-01-16T08:44:40;2.00;99.90
21246;DHT22;10781;50.928;4.440;2024-01-16T08:47:06;2.00;99.90
21246;DHT22;10781;50.928;4.440;2024-01-16T08:49:33;1.90;99.90
21246;DHT22;10781;50.928;4.440;2024-01-16T08:51:59;1.80;99.90
21246;DHT22;10781;50.928;4.440;2024-01-16T08:54:25;1.90;99.90
21246;DHT22;10781;50.928;4.440;2024-01-16T08:56:52;1.90;99.90
21246;DHT22;10781;50.928;4.440;2024-01-16T08:59:18;2.20;99.90
21246;DHT22;10781;50.928;4.440;2024-01-16T09:01:43;2.30;99.90
21246;DHT22;10781;50.928;4.440;2024-01-16T09:04:09;2.20;99.90
21246;DHT22;10781;50.928;4.440;2024-01-16T09:06:35;2.20;99.90
21246;DHT22;10781;50.928;4.440;2024-01-16T09:09:00;2.30;99.90
21246;DHT22;10781;50.928;4.440;2024-01-16T09:11:26;2.50;99.90
21246;DHT22;10781;50.928;4.440;2024-01-16T09:13:52;2.40;99.90
21246;DHT22;10781;50.928;4.440;2024-01-16T09:16:17;2.50;99.90
21246;DHT22;10781;50.928;4.440;2024-01-16T09:18:43;2.70;99.90
21246;DHT22;10781;50.928;4.440;2024-01-16T09:21:09;2.60;99.90
21246;DHT22;10781;50.928;4.440;2024-01-16T09:23:35;2.70;99.90
21246;DHT22;10781;50.928;4.440;2024-01-16T09:26:02;2.50;99.90
21246;DHT22;10781;50.928;4.440;2024-01-16T09:28:28;2.60;99.90
21246;DHT22;10781;50.928;4.440;2024-01-16T09:30:54;2.80;99.90
21246;DHT22;10781;50.928;4.440;2024-01-16T09:33:22;2.90;99.90
21246;DHT22;10781;50.928;4.440;2024-01-16T09:35:48;2.90;99.90
21246;DHT22;10781;50.928;4.440;2024-01-16T09:38:14;2.80;99.90
21246;DHT22;10781;50.928;4.440;2024-01-16T09:40:40;2.90;99.90
21246;DHT22;10781;50.928;4.440;2024-01-16T09:43:06;3.00;99.90
21246;DHT22;10781;50.928;4.440;2024-01-16T09:45:37;2.80;99.90
21246;DHT22;10781;50.928;4.440;2024-01-16T09:48:05;2.80;99.90
21246;DHT22;10781;50.928;4.440;2024-01-16T09:50:31;2.70;99.90
21246;DHT22;10781;50.928;4.440;2024-01-16T09:52:57;2.70;99.90
21246;DHT22;10781;50.928;4.440;2024-01-16T09:55:24;2.70;99.90
21246;DHT22;10781;50.928;4.440;2024-01-16T09:57:52;2.70;99.90
21246;DHT22;10781;50.928;4.440;2024-01-16T10:00:21;2.90;99.90
21246;DHT22;10781;50.928;4.440;2024-01-16T10:02:50;2.80;99.90
21246;DHT22;10781;50.928;4.440;2024-01-16T10:05:16;2.70;99.90
21246;DHT22;10781;50.928;4.440;2024-01-16T10:07:42;2.80;99.90
21246;DHT22;10781;50.928;4.440;2024-01-16T10:10:11;2.70;99.90
21246;DHT22;10781;50.928;4.440;2024-01-16T10:12:38;2.60;99.90
21246;DHT22;10781;50.928;4.440;2024-01-16T10:15:08;2.60;99.90
21246;DHT22;10781;50.928;4.440;2024-01-16T10:17:41;2.50;99.90
21246;DHT22;10781;50.928;4.440;2024-01-16T10:20:10;2.50;99.90
21246;DHT22;10781;50.928;4.440;2024-01-16T10:22:52;2.60;99.90
21246;DHT22;10781;50.928;4.440;2024-01-16T10:25:18;2.60;99.90
21246;DHT22;10781;50.928;4.440;2024-01-16T10:27:46;2.40;99.90
21246;DHT22;10781;50.928;4.440;2024-01-16T10:30:12;2.20;99.90
21246;DHT22;10781;50.928;4.440;2024-01-16T10:32:42;2.10;99.90
21246;DHT22;10781;50.928;4.440;2024-01-16T10:35:10;2.20;99.90
21246;DHT22;10781;50.928;4.440;2024-01-16T10:37:43;2.50;99.90
21246;DHT22;10781;50.928;4.440;2024-01-16T10:40:09;2.50;99.90
21246;DHT22;10781;50.928;4.440;2024-01-16T10:42:36;2.60;99.90
21246;DHT22;10781;50.928;4.440;2024-01-16T10:45:01;2.70;99.90
21246;DHT22;10781;50.928;4.440;2024-01-16T10:47:28;2.60;99.90
21246;DHT22;10781;50.928;4.440;2024-01-16T10:49:53;2.80;99.90
21246;DHT22;10781;50.928;4.440;2024-01-16T10:52:20;2.70;99.90
21246;DHT22;10781;50.928;4.440;2024-01-16T10:54:53;2.70;99.90
21246;DHT22;10781;50.928;4.440;2024-01-16T10:57:24;2.80;99.90
21246;DHT22;10781;50.928;4.440;2024-01-16T11:00:11;2.70;99.90
21246;DHT22;10781;50.928;4.440;2024-01-16T11:02:43;2.70;99.90
21246;DHT22;10781;50.928;4.440;2024-01-16T11:05:12;2.90;99.90
21246;DHT22;10781;50.928;4.440;2024-01-16T11:07:40;2.80;99.90
21246;DHT22;10781;50.928;4.440;2024-01-16T11:10:07;2.90;99.90
21246;DHT22;10781;50.928;4.440;2024-01-16T11:12:34;3.10;99.90
21246;DHT22;10781;50.928;4.440;2024-01-16T11:15:00;3.00;99.90
21246;DHT22;10781;50.928;4.440;2024-01-16T11:17:31;3.00;99.90
21246;DHT22;10781;50.928;4.440;2024-01-16T11:19:57;3.10;99.90
21246;DHT22;10781;50.928;4.440;2024-01-16T11:22:23;3.20;99.90
21246;DHT22;10781;50.928;4.440;2024-01-16T11:25:13;3.30;99.90
21246;DHT22;10781;50.928;4.440;2024-01-16T11:27:41;3.50;99.90
21246;DHT22;10781;50.928;4.440;2024-01-16T11:30:08;3.60;99.90
21246;DHT22;10781;50.928;4.440;2024-01-16T11:32:39;3.40;99.90
21246;DHT22;10781;50.928;4.440;2024-01-16T11:35:06;3.40;99.90
21246;DHT22;10781;50.928;4.440;2024-01-16T11:37:33;3.50;99.90
21246;DHT22;10781;50.928;4.440;2024-01-16T11:42:53;3.50;99.90
21246;DHT22;10781;50.928;4.440;2024-01-16T11:48:14;3.20;99.90
21246;DHT22;10781;50.928;4.440;2024-01-16T11:50:41;3.20;99.90
21246;DHT22;10781;50.928;4.440;2024-01-16T11:53:07;3.20;99.90
21246;DHT22;10781;50.928;4.440;2024-01-16T11:55:34;3.20;99.90
21246;DHT22;10781;50.928;4.440;2024-01-16T12:00:57;3.30;99.90
21246;DHT22;10781;50.928;4.440;2024-01-16T12:03:23;3.40;99.90
21246;DHT22;10781;50.928;4.440;2024-01-16T12:05:59;3.30;99.90
21246;DHT22;10781;50.928;4.440;2024-01-16T12:08:25;3.40;99.90
21246;DHT22;10781;50.928;4.440;2024-01-16T12:10:51;3.60;99.90
21246;DHT22;10781;50.928;4.440;2024-01-16T12:13:17;3.50;99.90
21246;DHT22;10781;50.928;4.440;2024-01-16T12:15:43;3.60;99.90
21246;DHT22;10781;50.928;4.440;2024-01-16T12:18:09;3.70;99.90
21246;DHT22;10781;50.928;4.440;2024-01-16T12:20:38;3.70;99.90
21246;DHT22;10781;50.928;4.440;2024-01-16T12:23:06;3.50;99.90
21246;DHT22;10781;50.928;4.440;2024-01-16T12:25:34;3.50;99.90
21246;DHT22;10781;50.928;4.440;2024-01-16T12:28:01;3.50;99.90
21246;DHT22;10781;50.928;4.440;2024-01-16T12:30:28;3.50;99.90
21246;DHT22;10781;50.928;4.440;2024-01-16T12:35:35;3.50;99.90
21246;DHT22;10781;50.928;4.440;2024-01-16T12:38:05;3.60;99.90
21246;DHT22;10781;50.928;4.440;2024-01-16T12:40:32;3.60;99.90
21246;DHT22;10781;50.928;4.440;2024-01-16T12:42:59;3.70;99.90
21246;DHT22;10781;50.928;4.440;2024-01-16T12:45:24;3.60;99.90
21246;DHT22;10781;50.928;4.440;2024-01-16T12:47:52;3.60;99.90
21246;DHT22;10781;50.928;4.440;2024-01-16T12:50:26;3.60;99.90
21246;DHT22;10781;50.928;4.440;2024-01-16T12:53:08;3.60;99.90
21246;DHT22;10781;50.928;4.440;2024-01-16T12:55:36;3.60;99.90
21246;DHT22;10781;50.928;4.440;2024-01-16T12:58:15;3.60;99.90
21246;DHT22;10781;50.928;4.440;2024-01-16T13:00:49;3.60;99.90
21246;DHT22;10781;50.928;4.440;2024-01-16T13:03:24;3.60;99.90
21246;DHT22;10781;50.928;4.440;2024-01-16T13:06:00;3.70;99.90
21246;DHT22;10781;50.928;4.440;2024-01-16T13:08:26;3.70;99.90
21246;DHT22;10781;50.928;4.440;2024-01-16T13:11:03;3.70;99.90
21246;DHT22;10781;50.928;4.440;2024-01-16T13:13:29;3.70;99.90
21246;DHT22;10781;50.928;4.440;2024-01-16T13:15:55;3.60;99.90
21246;DHT22;10781;50.928;4.440;2024-01-16T13:18:24;3.60;99.90
21246;DHT22;10781;50.928;4.440;2024-01-16T13:20:51;3.90;99.90
21246;DHT22;10781;50.928;4.440;2024-01-16T13:23:17;4.00;99.90
21246;DHT22;10781;50.928;4.440;2024-01-16T13:25:45;3.80;99.90
21246;DHT22;10781;50.928;4.440;2024-01-16T13:28:20;3.70;99.90
21246;DHT22;10781;50.928;4.440;2024-01-16T13:30:47;3.80;99.90
21246;DHT22;10781;50.928;4.440;2024-01-16T13:33:14;4.00;99.90
21246;DHT22;10781;50.928;4.440;2024-01-16T13:35:42;4.10;99.90
21246;DHT22;10781;50.928;4.440;2024-01-16T13:38:09;4.30;99.90
21246;DHT22;10781;50.928;4.440;2024-01-16T13:40:35;4.30;99.90
21246;DHT22;10781;50.928;4.440;2024-01-16T13:43:02;4.00;99.90
21246;DHT22;10781;50.928;4.440;2024-01-16T13:45:28;3.80;99.90
21246;DHT22;10781;50.928;4.440;2024-01-16T13:47:55;3.80;99.90
21246;DHT22;10781;50.928;4.440;2024-01-16T13:50:21;3.90;99.90
21246;DHT22;10781;50.928;4.440;2024-01-16T13:52:47;4.00;99.90
21246;DHT22;10781;50.928;4.440;2024-01-16T13:55:12;4.00;99.90
21246;DHT22;10781;50.928;4.440;2024-01-16T13:57:38;4.20;99.90
21246;DHT22;10781;50.928;4.440;2024-01-16T14:00:06;4.20;99.90
21246;DHT22;10781;50.928;4.440;2024-01-16T14:02:32;4.40;99.90
21246;DHT22;10781;50.928;4.440;2024-01-16T14:05:00;4.70;99.90
21246;DHT22;10781;50.928;4.440;2024-01-16T14:07:26;4.60;99.90
21246;DHT22;10781;50.928;4.440;2024-01-16T14:09:51;4.40;99.90
21246;DHT22;10781;50.928;4.440;2024-01-16T14:12:17;4.40;99.90
21246;DHT22;10781;50.928;4.440;2024-01-16T14:14:44;4.30;99.90
21246;DHT22;10781;50.928;4.440;2024-01-16T14:17:10;4.30;99.90
21246;DHT22;10781;50.928;4.440;2024-01-16T14:19:36;4.50;99.90
21246;DHT22;10781;50.928;4.440;2024-01-16T14:22:03;4.30;99.90
21246;DHT22;10781;50.928;4.440;2024-01-16T14:24:29;4.30;99.90
21246;DHT22;10781;50.928;4.440;2024-01-16T14:26:55;4.40;99.90
21246;DHT22;10781;50.928;4.440;2024-01-16T14:29:24;4.20;99.90
21246;DHT22;10781;50.928;4.440;2024-01-16T14:31:51;4.30;99.90
21246;DHT22;10781;50.928;4.440;2024-01-16T14:34:16;4.30;99.90
21246;DHT22;10781;50.928;4.440;2024-01-16T14:36:43;4.40;99.90
21246;DHT22;10781;50.928;4.440;2024-01-16T14:39:09;4.40;99.90
21246;DHT22;10781;50.928;4.440;2024-01-16T14:41:39;4.10;99.90
21246;DHT22;10781;50.928;4.440;2024-01-16T14:44:08;4.00;99.90
21246;DHT22;10781;50.928;4.440;2024-01-16T14:46:37;4.10;99.90
21246;DHT22;10781;50.928;4.440;2024-01-16T14:49:03;4.10;99.90
21246;DHT22;10781;50.928;4.440;2024-01-16T14:51:29;4.10;99.90
21246;DHT22;10781;50.928;4.440;2024-01-16T14:53:54;4.20;99.90
21246;DHT22;10781;50.928;4.440;2024-01-16T14:56:21;4.30;99.90
21246;DHT22;10781;50.928;4.440;2024-01-16T14:58:46;4.40;99.90
21246;DHT22;10781;50.928;4.440;2024-01-16T15:01:12;4.40;99.90
21246;DHT22;10781;50.928;4.440;2024-01-16T15:03:38;4.40;99.90
21246;DHT22;10781;50.928;4.440;2024-01-16T15:06:04;4.30;99.90
21246;DHT22;10781;50.928;4.440;2024-01-16T15:08:30;4.30;99.90
21246;DHT22;10781;50.928;4.440;2024-01-16T15:10:58;4.00;99.90
21246;DHT22;10781;50.928;4.440;2024-01-16T15:13:26;3.90;99.90
21246;DHT22;10781;50.928;4.440;2024-01-16T15:15:52;4.00;99.90
21246;DHT22;10781;50.928;4.440;2024-01-16T15:18:19;4.20;99.90
21246;DHT22;10781;50.928;4.440;2024-01-16T15:20:45;4.20;99.90
21246;DHT22;10781;50.928;4.440;2024-01-16T15:23:11;4.20;99.90
21246;DHT22;10781;50.928;4.440;2024-01-16T15:25:37;4.30;99.90
21246;DHT22;10781;50.928;4.440;2024-01-16T15:28:03;4.30;99.90
21246;DHT22;10781;50.928;4.440;2024-01-16T15:30:29;4.30;99.90
21246;DHT22;10781;50.928;4.440;2024-01-16T15:32:58;4.20;99.90
21246;DHT22;10781;50.928;4.440;2024-01-16T15:35:24;4.10;99.90
21246;DHT22;10781;50.928;4.440;2024-01-16T15:37:50;4.10;99.90
21246;DHT22;10781;50.928;4.440;2024-01-16T15:40:16;4.10;99.90
21246;DHT22;10781;50.928;4.440;2024-01-16T15:42:41;4.00;99.90
21246;DHT22;10781;50.928;4.440;2024-01-16T15:45:08;4.00;99.90
21246;DHT22;10781;50.928;4.440;2024-01-16T15:47:35;4.20;99.90
21246;DHT22;10781;50.928;4.440;2024-01-16T15:50:01;4.10;99.90
21246;DHT22;10781;50.928;4.440;2024-01-16T15:52:26;4.00;99.90
21246;DHT22;10781;50.928;4.440;2024-01-16T15:54:52;4.00;99.90
21246;DHT22;10781;50.928;4.440;2024-01-16T15:57:18;4.00;99.90